createdAt,value
2023-01-06T00:01:35.607Z,101490.34
2023-01-06T00:04:04.384Z,101470.22
2023-01-06T00:06:33.001Z,101482.03
2023-01-06T00:09:05.010Z,101460.66
2023-01-06T00:11:35.501Z,101450.25
2023-01-06T00:14:03.746Z,101454.47
2023-01-06T00:16:31.719Z,101440.31
2023-01-06T00:19:01.042Z,101438.19
2023-01-06T00:21:29.537Z,101432.41
2023-01-06T00:23:57.454Z,101429.78
2023-01-06T00:26:25.173Z,101415.16
2023-01-06T00:28:56.031Z,101411.91
2023-01-06T00:31:24.557Z,101413.41
2023-01-06T00:33:53.058Z,101412.63
2023-01-06T00:36:22.525Z,101412.56
2023-01-06T00:38:51.422Z,101415.78
2023-01-06T00:41:36.685Z,101412.13
2023-01-06T00:44:06.628Z,101409.19
2023-01-06T00:46:35.830Z,101415.84
2023-01-06T00:49:05.533Z,101416.19
2023-01-06T00:51:34.962Z,101405.28
2023-01-06T00:54:02.994Z,101418.56
2023-01-06T00:56:31.084Z,101411.78
2023-01-06T00:58:58.812Z,101417.72
2023-01-06T01:01:28.035Z,101399.84
2023-01-06T01:03:56.108Z,101395.31
2023-01-06T01:06:24.145Z,101393.53
2023-01-06T01:08:57.283Z,101388.72
2023-01-06T01:11:43.656Z,101403.75
2023-01-06T01:14:12.372Z,101396.22
2023-01-06T01:16:42.000Z,101400.19
2023-01-06T01:19:09.899Z,101405.28
2023-01-06T01:21:37.689Z,101399.72
2023-01-06T01:24:07.600Z,101376.53
2023-01-06T01:26:35.925Z,101367.34
2023-01-06T01:29:03.826Z,101363.38
2023-01-06T01:31:32.073Z,101355.19
2023-01-06T01:34:02.132Z,101351.63
2023-01-06T01:36:30.627Z,101333.94
2023-01-06T01:38:59.311Z,101329.91
2023-01-06T01:41:28.573Z,101342.41
2023-01-06T01:43:58.659Z,101352.59
2023-01-06T01:46:34.876Z,101345.03
2023-01-06T01:49:17.387Z,101368.38
2023-01-06T01:51:47.638Z,101361.94
2023-01-06T01:54:17.991Z,101363.38
2023-01-06T01:56:49.664Z,101354.25
2023-01-06T01:59:20.676Z,101338.19
2023-01-06T02:01:51.118Z,101349.84
2023-01-06T02:04:24.127Z,101364.00
2023-01-06T02:06:52.109Z,101362.03
2023-01-06T02:09:24.862Z,101367.03
2023-01-06T02:11:52.684Z,101360.56
2023-01-06T02:14:23.702Z,101359.34
2023-01-06T02:17:06.810Z,101357.28
2023-01-06T02:20:18.962Z,101349.44
2023-01-06T02:23:08.601Z,101331.44
2023-01-06T02:26:26.700Z,101327.50
2023-01-06T02:29:42.117Z,101320.88
2023-01-06T02:32:26.582Z,101302.38
2023-01-06T02:35:10.966Z,101312.66
2023-01-06T02:37:48.447Z,101310.03
2023-01-06T02:40:29.180Z,101306.81
2023-01-06T02:43:07.885Z,101326.84
2023-01-06T02:45:48.528Z,101310.53
2023-01-06T02:48:25.886Z,101297.38
2023-01-06T02:51:02.888Z,101300.19
2023-01-06T02:53:38.721Z,101309.28
2023-01-06T02:56:07.301Z,101318.09
2023-01-06T02:58:46.088Z,101297.75
2023-01-06T03:01:18.038Z,101288.94
2023-01-06T03:03:49.333Z,101276.16
2023-01-06T03:06:19.721Z,101274.91
2023-01-06T03:08:49.823Z,101260.31
2023-01-06T03:11:18.150Z,101253.13
2023-01-06T03:13:50.746Z,101241.53
2023-01-06T03:16:19.293Z,101222.97
2023-01-06T03:18:51.537Z,101210.19
2023-01-06T03:21:22.536Z,101190.09
2023-01-06T03:23:50.454Z,101189.56
2023-01-06T03:26:18.250Z,101189.66
2023-01-06T03:28:46.030Z,101174.59
2023-01-06T03:31:21.019Z,101175.13
2023-01-06T03:33:57.833Z,101166.81
2023-01-06T03:36:32.129Z,101172.63
2023-01-06T03:39:08.406Z,101159.88
2023-01-06T03:41:56.160Z,101156.31
2023-01-06T03:44:34.396Z,101156.69
2023-01-06T03:47:06.877Z,101154.81
2023-01-06T03:49:42.849Z,101157.22
2023-01-06T03:52:20.125Z,101162.50
2023-01-06T03:54:56.381Z,101156.03
2023-01-06T03:57:28.052Z,101162.50
2023-01-06T03:59:59.213Z,101140.59
2023-01-06T04:02:27.588Z,101146.94
2023-01-06T04:05:06.149Z,101161.81
2023-01-06T04:07:33.865Z,101147.72
2023-01-06T04:10:01.663Z,101168.28
2023-01-06T04:12:40.219Z,101174.84
2023-01-06T04:15:10.279Z,101163.59
2023-01-06T04:17:39.051Z,101175.66
2023-01-06T04:20:10.741Z,101187.41
2023-01-06T04:22:38.501Z,101179.38
2023-01-06T04:25:07.932Z,101207.81
2023-01-06T04:27:35.637Z,101239.44
2023-01-06T04:30:03.740Z,101250.56
2023-01-06T04:32:31.524Z,101299.53
2023-01-06T04:34:59.279Z,101327.28
2023-01-06T04:37:28.400Z,101340.69
2023-01-06T04:39:56.582Z,101351.44
2023-01-06T04:42:24.392Z,101347.47
2023-01-06T04:44:52.181Z,101346.53
2023-01-06T04:47:20.002Z,101359.03
2023-01-06T04:49:47.760Z,101353.72
2023-01-06T04:52:16.789Z,101363.94
2023-01-06T04:54:45.937Z,101370.53
2023-01-06T04:57:13.674Z,101362.97
2023-01-06T04:59:41.452Z,101382.38
2023-01-06T05:02:09.188Z,101400.66
2023-01-06T05:04:46.950Z,101403.53
2023-01-06T05:07:15.594Z,101412.41
2023-01-06T05:09:43.349Z,101408.91
2023-01-06T05:12:12.439Z,101412.38
2023-01-06T05:14:40.199Z,101421.78
2023-01-06T05:17:07.949Z,101431.38
2023-01-06T05:19:35.730Z,101450.75
2023-01-06T05:22:03.483Z,101485.78
2023-01-06T05:24:31.207Z,101486.16
2023-01-06T05:26:58.965Z,101497.78
2023-01-06T05:29:28.051Z,101542.81
2023-01-06T05:31:55.872Z,101559.34
2023-01-06T05:34:23.710Z,101570.91
2023-01-06T05:36:51.450Z,101578.91
2023-01-06T05:39:19.217Z,101584.84
2023-01-06T05:41:47.050Z,101590.06
2023-01-06T05:44:14.762Z,101591.50
2023-01-06T05:46:43.876Z,101609.75
2023-01-06T05:49:11.799Z,101619.13
2023-01-06T05:51:39.546Z,101614.56
2023-01-06T05:54:08.981Z,101616.03
2023-01-06T05:56:36.961Z,101623.34
2023-01-06T05:59:05.362Z,101638.44
2023-01-06T06:01:33.514Z,101639.22
2023-01-06T06:04:02.696Z,101655.00
2023-01-06T06:06:31.058Z,101662.00
2023-01-06T06:08:59.104Z,101681.97
2023-01-06T06:11:27.022Z,101688.75
2023-01-06T06:13:56.212Z,101702.94
2023-01-06T06:16:26.046Z,101712.78
2023-01-06T06:18:56.192Z,101712.41
2023-01-06T06:21:26.898Z,101703.38
2023-01-06T06:23:55.520Z,101709.34
2023-01-06T06:26:23.850Z,101714.56
2023-01-06T06:28:51.674Z,101712.72
2023-01-06T06:31:22.472Z,101709.41
2023-01-06T06:33:52.005Z,101708.84
2023-01-06T06:36:20.025Z,101715.13
2023-01-06T06:38:50.783Z,101715.97
2023-01-06T06:41:19.679Z,101711.50
2023-01-06T06:43:48.694Z,101719.41
2023-01-06T06:46:16.701Z,101721.91
2023-01-06T06:48:44.528Z,101719.13
2023-01-06T06:51:16.867Z,101725.53
2023-01-06T06:53:45.259Z,101719.34
2023-01-06T06:56:15.691Z,101735.00
2023-01-06T06:58:43.820Z,101722.59
2023-01-06T07:01:14.887Z,101729.63
2023-01-06T07:03:43.110Z,101718.78
2023-01-06T07:06:13.950Z,101733.34
2023-01-06T07:08:44.250Z,101744.25
2023-01-06T07:11:12.117Z,101737.75
2023-01-06T07:13:41.492Z,101755.34
2023-01-06T07:16:09.590Z,101749.00
2023-01-06T07:18:37.472Z,101766.25
2023-01-06T07:21:06.031Z,101768.25
2023-01-06T07:23:34.611Z,101760.41
2023-01-06T07:26:03.424Z,101758.44
2023-01-06T07:28:32.845Z,101755.34
2023-01-06T07:31:02.465Z,101748.16
2023-01-06T07:33:30.547Z,101737.13
2023-01-06T07:35:59.001Z,101745.50
2023-01-06T07:38:27.409Z,101738.19
2023-01-06T07:40:59.968Z,101752.34
2023-01-06T07:43:27.724Z,101751.22
2023-01-06T07:45:55.595Z,101741.38
2023-01-06T07:48:24.707Z,101736.09
2023-01-06T07:50:52.758Z,101732.69
2023-01-06T07:53:20.485Z,101728.47
2023-01-06T07:55:52.546Z,101728.78
2023-01-06T07:58:20.449Z,101728.69
2023-01-06T08:00:48.165Z,101720.59
2023-01-06T08:03:16.101Z,101720.34
2023-01-06T08:05:45.239Z,101703.53
2023-01-06T08:08:13.726Z,101700.13
2023-01-06T08:10:42.411Z,101692.00
2023-01-06T08:13:10.791Z,101686.09
2023-01-06T08:15:38.886Z,101673.81
2023-01-06T08:18:07.352Z,101671.41
2023-01-06T08:20:35.479Z,101665.03
2023-01-06T08:23:04.566Z,101663.31
2023-01-06T08:25:32.349Z,101654.69
2023-01-06T08:28:00.818Z,101657.03
2023-01-06T08:30:29.193Z,101645.75
2023-01-06T08:32:57.765Z,101652.38
2023-01-06T08:35:25.747Z,101640.59
2023-01-06T08:37:53.494Z,101639.09
2023-01-06T08:40:22.909Z,101640.78
2023-01-06T08:42:50.681Z,101640.38
2023-01-06T08:45:18.617Z,101639.25
2023-01-06T08:47:46.520Z,101639.31
2023-01-06T08:50:14.276Z,101625.41
2023-01-06T08:52:42.011Z,101626.09
2023-01-06T08:55:09.859Z,101615.44
2023-01-06T08:57:39.007Z,101601.53
2023-01-06T09:00:08.174Z,101605.44
2023-01-06T09:02:35.910Z,101611.50
2023-01-06T09:05:03.696Z,101600.69
2023-01-06T09:07:31.449Z,101593.50
2023-01-06T09:09:59.219Z,101594.47
2023-01-06T09:12:27.050Z,101593.31
2023-01-06T09:14:56.146Z,101602.72
2023-01-06T09:17:23.963Z,101594.47
2023-01-06T09:19:51.693Z,101594.59
2023-01-06T09:22:19.511Z,101592.31
2023-01-06T09:24:47.336Z,101585.81
2023-01-06T09:27:15.838Z,101591.91
2023-01-06T09:29:43.607Z,101577.72
2023-01-06T09:32:12.711Z,101576.47
2023-01-06T09:34:40.487Z,101574.75
2023-01-06T09:37:08.417Z,101566.34
2023-01-06T09:39:37.163Z,101576.22
2023-01-06T09:42:20.076Z,101559.72
2023-01-06T09:44:51.302Z,101569.44
2023-01-06T09:47:25.968Z,101566.81
2023-01-06T09:50:00.694Z,101567.00
2023-01-06T09:52:33.278Z,101551.38
2023-01-06T09:55:05.154Z,101552.84
2023-01-06T09:57:37.122Z,101545.47
2023-01-06T10:00:07.460Z,101540.31
2023-01-06T10:02:39.907Z,101529.03
2023-01-06T10:05:21.937Z,101540.91
2023-01-06T10:07:58.710Z,101529.44
2023-01-06T10:10:34.183Z,101532.03
2023-01-06T10:13:18.875Z,101524.75
2023-01-06T10:15:52.970Z,101516.75
2023-01-06T10:18:39.658Z,101530.03
2023-01-06T10:21:15.378Z,101523.38
2023-01-06T10:24:09.296Z,101515.47
2023-01-06T10:26:44.739Z,101504.13
2023-01-06T10:29:17.507Z,101503.41
2023-01-06T10:31:47.031Z,101503.06
2023-01-06T10:34:22.494Z,101501.19
2023-01-06T10:36:55.982Z,101489.44
2023-01-06T10:39:27.186Z,101481.94
2023-01-06T10:42:16.561Z,101488.16
2023-01-06T10:44:44.306Z,101487.09
2023-01-06T10:47:20.901Z,101486.38
2023-01-06T10:49:50.125Z,101484.50
2023-01-06T10:52:18.035Z,101505.34
2023-01-06T10:54:46.907Z,101498.78
2023-01-06T10:57:21.915Z,101492.66
2023-01-06T11:00:08.508Z,101495.47
2023-01-06T11:02:36.621Z,101508.28
2023-01-06T11:05:06.164Z,101484.72
2023-01-06T11:07:35.236Z,101471.78
2023-01-06T11:10:23.901Z,101468.75
2023-01-06T11:12:52.460Z,101449.63
2023-01-06T11:15:22.950Z,101442.81
2023-01-06T11:17:50.895Z,101441.00
2023-01-06T11:20:34.665Z,101445.47
2023-01-06T11:23:15.740Z,101440.63
2023-01-06T11:25:43.495Z,101436.31
2023-01-06T11:28:19.157Z,101428.38
2023-01-06T11:30:52.377Z,101426.88
2023-01-06T11:33:22.512Z,101432.19
2023-01-06T11:35:52.256Z,101423.41
2023-01-06T11:38:22.107Z,101417.28
2023-01-06T11:40:52.006Z,101416.47
2023-01-06T11:43:25.316Z,101412.94
2023-01-06T11:45:56.807Z,101408.00
2023-01-06T11:48:29.597Z,101399.75
2023-01-06T11:51:00.772Z,101399.47
2023-01-06T11:53:29.413Z,101398.72
2023-01-06T11:56:03.461Z,101418.94
2023-01-06T11:58:46.017Z,101399.47
2023-01-06T12:01:21.520Z,101396.78
2023-01-06T12:03:52.543Z,101415.44
2023-01-06T12:06:28.761Z,101428.84
2023-01-06T12:09:02.006Z,101424.69
2023-01-06T12:11:41.314Z,101423.72
2023-01-06T12:14:27.516Z,101423.59
2023-01-06T12:17:05.507Z,101432.47
2023-01-06T12:19:40.268Z,101437.31
2023-01-06T12:22:22.844Z,101442.19
2023-01-06T12:24:52.613Z,101420.00
2023-01-06T12:27:28.047Z,101394.59
2023-01-06T12:29:59.543Z,101348.88
2023-01-06T12:32:31.273Z,101321.44
2023-01-06T12:35:04.315Z,101276.13
2023-01-06T12:37:36.663Z,101157.91
2023-01-06T12:40:14.500Z,101130.19
2023-01-06T12:42:47.327Z,101078.34
2023-01-06T12:45:20.248Z,101087.47
2023-01-06T12:47:54.298Z,101102.72
2023-01-06T12:50:32.685Z,101102.59
2023-01-06T12:53:12.914Z,101088.53
2023-01-06T12:55:59.291Z,101058.69
2023-01-06T12:58:34.480Z,101025.75
2023-01-06T13:01:06.729Z,101003.22
2023-01-06T13:04:05.555Z,100960.50
2023-01-06T13:06:46.170Z,100922.97
2023-01-06T13:09:41.226Z,100899.09
2023-01-06T13:12:41.092Z,100898.03
2023-01-06T13:15:20.253Z,100900.75
2023-01-06T13:17:58.479Z,100894.91
2023-01-06T13:20:31.195Z,100907.94
2023-01-06T13:23:14.886Z,100894.06
2023-01-06T13:26:10.573Z,100888.63
2023-01-06T13:28:49.002Z,100888.25
2023-01-06T13:31:40.805Z,100851.38
2023-01-06T13:34:24.543Z,100840.47
2023-01-06T13:37:21.011Z,100835.91
2023-01-06T13:39:51.462Z,100841.25
2023-01-06T13:42:28.179Z,100859.78
2023-01-06T13:44:56.066Z,100855.16
2023-01-06T13:47:25.332Z,100858.97
2023-01-06T13:49:54.172Z,100849.44
2023-01-06T13:52:25.870Z,100851.22
2023-01-06T13:55:02.540Z,100818.50
2023-01-06T13:57:39.847Z,100801.25
2023-01-06T14:00:20.593Z,100810.56
2023-01-06T14:03:26.528Z,100817.88
2023-01-06T14:05:56.416Z,100823.81
2023-01-06T14:08:27.587Z,100814.09
2023-01-06T14:11:02.307Z,100834.28
2023-01-06T14:13:35.650Z,100842.13
2023-01-06T14:16:08.451Z,100858.00
2023-01-06T14:18:40.724Z,100854.75
2023-01-06T14:21:19.084Z,100879.56
2023-01-06T14:23:57.220Z,100887.31
2023-01-06T14:26:58.406Z,100882.06
2023-01-06T14:30:05.683Z,100857.84
2023-01-06T14:33:04.993Z,100852.53
2023-01-06T14:35:37.145Z,100859.06
2023-01-06T14:38:07.672Z,100856.19
2023-01-06T14:40:40.732Z,100861.19
2023-01-06T14:43:29.699Z,100848.25
2023-01-06T14:46:03.395Z,100858.00
2023-01-06T14:48:44.210Z,100856.00
2023-01-06T14:51:17.643Z,100876.38
2023-01-06T14:53:50.425Z,100880.38
2023-01-06T14:56:20.403Z,100881.69
2023-01-06T14:58:48.304Z,100880.34
2023-01-06T15:01:24.761Z,100899.25
2023-01-06T15:03:58.993Z,100902.66
2023-01-06T15:06:28.245Z,100918.78
2023-01-06T15:09:10.983Z,100918.56
2023-01-06T15:11:42.428Z,100917.06
2023-01-06T15:14:28.333Z,100927.41
2023-01-06T15:16:59.203Z,100923.44
2023-01-06T15:19:28.731Z,100934.78
2023-01-06T15:21:57.127Z,100938.41
2023-01-06T15:24:27.752Z,100944.50
2023-01-06T15:26:57.023Z,100959.25
2023-01-06T15:29:26.714Z,100953.50
2023-01-06T15:31:56.805Z,100962.19
2023-01-06T15:34:31.289Z,100973.81
2023-01-06T15:37:00.118Z,100978.19
2023-01-06T15:39:30.542Z,101003.66
2023-01-06T15:41:59.488Z,101012.50
2023-01-06T15:44:30.682Z,101010.94
2023-01-06T15:47:08.142Z,100999.72
2023-01-06T15:49:39.808Z,101000.97
2023-01-06T15:52:09.971Z,100993.38
2023-01-06T15:54:39.471Z,100994.81
2023-01-06T15:57:16.901Z,100995.41
2023-01-06T15:59:54.885Z,100984.13
2023-01-06T16:02:26.064Z,100981.59
2023-01-06T16:04:55.763Z,100968.47
2023-01-06T16:07:34.822Z,100968.50
2023-01-06T16:10:02.732Z,100976.50
2023-01-06T16:12:30.642Z,100975.97
2023-01-06T16:14:58.363Z,100974.44
2023-01-06T16:17:30.499Z,100980.53
2023-01-06T16:20:02.143Z,100982.66
2023-01-06T16:22:37.315Z,100986.91
2023-01-06T16:25:08.731Z,100998.28
2023-01-06T16:27:36.764Z,100987.75
2023-01-06T16:30:23.162Z,100994.72
2023-01-06T16:32:54.314Z,100991.25
2023-01-06T16:35:24.837Z,101017.44
2023-01-06T16:37:53.550Z,101010.31
2023-01-06T16:40:23.579Z,101022.13
2023-01-06T16:42:57.117Z,101017.91
2023-01-06T16:45:33.716Z,101026.25
2023-01-06T16:48:01.623Z,101031.16
2023-01-06T16:50:35.188Z,101016.31
2023-01-06T16:53:07.131Z,101006.03
2023-01-06T16:55:35.110Z,101012.63
2023-01-06T16:58:06.845Z,101018.50
2023-01-06T17:00:39.457Z,101004.72
2023-01-06T17:03:14.349Z,100986.63
2023-01-06T17:05:44.279Z,100983.31
2023-01-06T17:08:15.061Z,100991.31
2023-01-06T17:10:43.126Z,101000.47
2023-01-06T17:13:33.160Z,101001.75
2023-01-06T17:16:03.196Z,101002.91
2023-01-06T17:18:32.678Z,100994.09
2023-01-06T17:21:09.863Z,101004.72
2023-01-06T17:23:43.159Z,101005.94
2023-01-06T17:26:14.541Z,100988.09
2023-01-06T17:28:43.038Z,101000.72
2023-01-06T17:31:15.640Z,101008.34
2023-01-06T17:33:45.237Z,100997.38
2023-01-06T17:36:23.207Z,101005.81
2023-01-06T17:38:51.542Z,100999.94
2023-01-06T17:41:20.443Z,101000.56
2023-01-06T17:43:48.573Z,100995.56
2023-01-06T17:46:27.827Z,100989.47
2023-01-06T17:49:02.588Z,101003.50
2023-01-06T17:51:31.714Z,101008.16
2023-01-06T17:54:17.120Z,100993.69
2023-01-06T17:56:44.955Z,101002.59
2023-01-06T17:59:18.166Z,101013.25
2023-01-06T18:01:45.960Z,101021.63
2023-01-06T18:04:15.826Z,101035.19
2023-01-06T18:06:52.726Z,101031.09
2023-01-06T18:09:21.272Z,101023.19
2023-01-06T18:11:50.558Z,101037.72
2023-01-06T18:14:28.992Z,101033.25
2023-01-06T18:16:59.028Z,101051.53
2023-01-06T18:19:31.891Z,101037.72
2023-01-06T18:22:03.270Z,101025.84
2023-01-06T18:24:35.636Z,101022.59
2023-01-06T18:27:05.272Z,101022.75
2023-01-06T18:29:36.726Z,101028.00
2023-01-06T18:32:33.416Z,101022.88
2023-01-06T18:35:03.087Z,101034.25
2023-01-06T18:37:34.559Z,101032.63
2023-01-06T18:40:04.129Z,101033.41
2023-01-06T18:42:33.744Z,101028.44
2023-01-06T18:45:16.201Z,101048.88
2023-01-06T18:47:44.751Z,101038.94
2023-01-06T18:50:25.496Z,101054.66
2023-01-06T18:52:55.382Z,101038.94
2023-01-06T18:55:42.750Z,101044.53
2023-01-06T18:58:26.210Z,101055.00
2023-01-06T19:00:56.202Z,101060.56
2023-01-06T19:03:38.307Z,101067.28
2023-01-06T19:06:38.308Z,101065.06
2023-01-06T19:09:24.130Z,101062.66
2023-01-06T19:11:59.485Z,101058.72
2023-01-06T19:14:29.224Z,101064.84
2023-01-06T19:16:58.368Z,101058.81
2023-01-06T19:19:28.899Z,101063.16
2023-01-06T19:22:10.863Z,101065.59
2023-01-06T19:24:44.701Z,101065.75
2023-01-06T19:27:28.850Z,101063.25
2023-01-06T19:29:57.849Z,101060.56
2023-01-06T19:32:30.716Z,101070.50
2023-01-06T19:34:59.227Z,101069.56
2023-01-06T19:37:27.446Z,101064.78
2023-01-06T19:39:58.968Z,101072.19
2023-01-06T19:42:29.944Z,101075.63
2023-01-06T19:45:00.613Z,101077.16
2023-01-06T19:47:35.688Z,101070.63
2023-01-06T19:50:19.073Z,101065.75
2023-01-06T19:52:46.997Z,101073.78
2023-01-06T19:55:27.324Z,101067.75
2023-01-06T19:57:57.209Z,101073.56
2023-01-06T20:00:28.824Z,101074.56
2023-01-06T20:02:58.695Z,101060.59
2023-01-06T20:05:27.479Z,101047.19
2023-01-06T20:07:55.558Z,101056.91
2023-01-06T20:10:25.207Z,101059.81
2023-01-06T20:12:52.955Z,101068.09
2023-01-06T20:15:20.700Z,101062.72
2023-01-06T20:17:48.417Z,101055.72
2023-01-06T20:20:16.209Z,101052.31
2023-01-06T20:22:44.732Z,101038.81
2023-01-06T20:25:12.503Z,101036.69
2023-01-06T20:27:41.581Z,101043.53
2023-01-06T20:30:10.680Z,101062.19
2023-01-06T20:32:38.473Z,101059.50
2023-01-06T20:35:07.873Z,101070.94
2023-01-06T20:37:35.608Z,101069.09
2023-01-06T20:40:04.075Z,101064.13
2023-01-06T20:42:31.776Z,101071.78
2023-01-06T20:45:00.875Z,101063.06
2023-01-06T20:47:28.616Z,101056.22
2023-01-06T20:49:56.818Z,101050.38
2023-01-06T20:52:24.549Z,101057.75
2023-01-06T20:54:52.251Z,101061.75
2023-01-06T20:57:20.000Z,101057.31
2023-01-06T20:59:48.047Z,101068.72
2023-01-06T21:02:17.301Z,101057.66
2023-01-06T21:04:45.276Z,101068.66
2023-01-06T21:07:13.005Z,101068.94
2023-01-06T21:09:40.712Z,101064.03
2023-01-06T21:12:08.756Z,101064.94
2023-01-06T21:14:36.476Z,101067.16
2023-01-06T21:17:04.269Z,101054.44
2023-01-06T21:19:33.392Z,101058.03
2023-01-06T21:22:01.148Z,101049.81
2023-01-06T21:24:28.855Z,101052.63
2023-01-06T21:26:56.569Z,101058.81
2023-01-06T21:29:24.303Z,101064.19
2023-01-06T21:31:52.052Z,101065.78
2023-01-06T21:34:19.744Z,101084.81
2023-01-06T21:36:48.883Z,101102.22
2023-01-06T21:39:16.642Z,101108.59
2023-01-06T21:42:02.048Z,101111.50
2023-01-06T21:44:29.759Z,101110.25
2023-01-06T21:46:59.260Z,101088.25
2023-01-06T21:49:27.012Z,101086.94
2023-01-06T21:51:57.398Z,101084.66
2023-01-06T21:54:25.337Z,101079.34
2023-01-06T21:56:53.079Z,101075.88
2023-01-06T21:59:20.936Z,101075.66
2023-01-06T22:01:48.881Z,101075.19
2023-01-06T22:04:16.678Z,101060.19
2023-01-06T22:06:44.980Z,101083.28
2023-01-06T22:09:16.688Z,101121.44
2023-01-06T22:11:45.260Z,101121.78
2023-01-06T22:14:14.985Z,101122.19
2023-01-06T22:16:43.366Z,101140.34
2023-01-06T22:19:13.273Z,101159.59
2023-01-06T22:21:42.936Z,101181.38
2023-01-06T22:24:13.645Z,101190.00
2023-01-06T22:26:42.948Z,101173.88
2023-01-06T22:29:11.070Z,101153.72
2023-01-06T22:31:38.848Z,101153.34
2023-01-06T22:34:08.375Z,101161.38
2023-01-06T22:36:36.198Z,101178.22
2023-01-06T22:39:04.649Z,101183.00
2023-01-06T22:41:32.461Z,101169.19
2023-01-06T22:44:01.562Z,101176.97
2023-01-06T22:46:29.988Z,101168.34
2023-01-06T22:48:57.977Z,101162.94
2023-01-06T22:51:27.353Z,101177.69
2023-01-06T22:53:55.536Z,101172.56
2023-01-06T22:56:23.265Z,101161.88
2023-01-06T22:58:51.068Z,101141.72
2023-01-06T23:01:20.487Z,101133.94
2023-01-06T23:03:48.295Z,101135.59
2023-01-06T23:06:16.357Z,101124.56
2023-01-06T23:08:59.172Z,101143.28
2023-01-06T23:11:28.409Z,101162.13
2023-01-06T23:13:57.389Z,101156.41
2023-01-06T23:16:28.946Z,101161.97
2023-01-06T23:18:56.846Z,101177.75
2023-01-06T23:21:26.145Z,101187.41
2023-01-06T23:23:54.488Z,101193.69
2023-01-06T23:26:24.451Z,101186.81
2023-01-06T23:28:52.841Z,101197.22
2023-01-06T23:31:23.464Z,101178.56
2023-01-06T23:33:55.747Z,101177.81
2023-01-06T23:36:25.517Z,101182.72
2023-01-06T23:38:53.617Z,101164.50
2023-01-06T23:41:24.021Z,101153.97
2023-01-06T23:43:52.249Z,101137.28
2023-01-06T23:46:21.814Z,101130.44
2023-01-06T23:48:50.810Z,101116.00
2023-01-06T23:51:20.315Z,101116.28
2023-01-06T23:53:48.080Z,101132.22
2023-01-06T23:56:18.659Z,101156.81
2023-01-06T23:58:48.012Z,101163.72
